createdAt,value
2023-05-21T00:01:16.319Z,100088.22
2023-05-21T00:03:46.364Z,100092.22
2023-05-21T00:06:15.536Z,100084.69
2023-05-21T00:08:43.749Z,100089.44
2023-05-21T00:11:12.384Z,100084.69
2023-05-21T00:13:40.684Z,100092.41
2023-05-21T00:16:11.178Z,100097.31
2023-05-21T00:18:39.972Z,100093.66
2023-05-21T00:21:08.206Z,100098.47
2023-05-21T00:23:37.724Z,100099.34
2023-05-21T00:26:06.663Z,100102.81
2023-05-21T00:28:35.034Z,100112.06
2023-05-21T00:31:03.060Z,100095.16
2023-05-21T00:33:31.587Z,100110.84
2023-05-21T00:36:00.423Z,100111.37
2023-05-21T00:38:28.583Z,100112.09
2023-05-21T00:40:57.239Z,100107.34
2023-05-21T00:43:26.630Z,100112.50
2023-05-21T00:45:56.553Z,100098.59
2023-05-21T00:48:26.285Z,100100.59
2023-05-21T00:50:54.966Z,100089.41
2023-05-21T00:53:23.533Z,100090.75
2023-05-21T00:55:52.187Z,100088.50
2023-05-21T00:58:20.490Z,100076.72
2023-05-21T01:00:48.720Z,100087.56
2023-05-21T01:03:17.649Z,100071.63
2023-05-21T01:05:47.146Z,100076.88
2023-05-21T01:08:15.493Z,100088.37
2023-05-21T01:10:44.690Z,100090.19
2023-05-21T01:13:13.069Z,100085.56
2023-05-21T01:15:41.263Z,100080.03
2023-05-21T01:18:09.988Z,100076.09
2023-05-21T01:20:39.318Z,100082.38
2023-05-21T01:23:07.478Z,100076.09
2023-05-21T01:25:36.205Z,100073.03
2023-05-21T01:28:04.591Z,100078.66
2023-05-21T01:30:32.753Z,100075.84
2023-05-21T01:33:13.227Z,100072.56
2023-05-21T01:35:49.705Z,100078.97
2023-05-21T01:38:24.913Z,100076.88
2023-05-21T01:41:23.154Z,100069.81
2023-05-21T01:43:55.790Z,100074.25
2023-05-21T01:46:27.650Z,100070.03
2023-05-21T01:48:57.148Z,100072.03
2023-05-21T01:51:26.169Z,100079.25
2023-05-21T01:53:54.328Z,100073.25
2023-05-21T01:56:26.164Z,100068.78
2023-05-21T01:58:57.043Z,100071.41
2023-05-21T02:01:27.104Z,100064.94
2023-05-21T02:03:56.736Z,100062.12
2023-05-21T02:06:25.208Z,100066.88
2023-05-21T02:08:53.427Z,100067.37
2023-05-21T02:11:22.450Z,100072.00
2023-05-21T02:13:51.384Z,100067.72
2023-05-21T02:16:22.632Z,100075.59
2023-05-21T02:18:52.231Z,100066.22
2023-05-21T02:21:20.884Z,100062.78
2023-05-21T02:23:49.536Z,100069.00
2023-05-21T02:26:17.950Z,100072.00
2023-05-21T02:28:46.516Z,100068.88
2023-05-21T02:31:14.902Z,100069.53
2023-05-21T02:33:43.464Z,100069.06
2023-05-21T02:36:15.737Z,100060.72
2023-05-21T02:38:44.388Z,100059.91
2023-05-21T02:41:12.816Z,100064.03
2023-05-21T02:43:41.151Z,100056.16
2023-05-21T02:46:09.317Z,100062.72
2023-05-21T02:48:37.890Z,100051.28
2023-05-21T02:51:06.665Z,100057.66
2023-05-21T02:53:34.813Z,100060.94
2023-05-21T02:56:03.811Z,100061.59
2023-05-21T02:58:32.235Z,100051.97
2023-05-21T03:01:00.665Z,100062.59
2023-05-21T03:03:29.424Z,100069.00
2023-05-21T03:05:58.890Z,100063.28
2023-05-21T03:08:26.912Z,100070.81
2023-05-21T03:10:55.872Z,100062.28
2023-05-21T03:13:24.343Z,100066.38
2023-05-21T03:15:56.260Z,100067.87
2023-05-21T03:18:24.742Z,100060.34
2023-05-21T03:20:53.917Z,100068.69
2023-05-21T03:23:22.010Z,100068.53
2023-05-21T03:25:53.574Z,100064.13
2023-05-21T03:28:22.472Z,100061.13
2023-05-21T03:30:52.084Z,100070.63
2023-05-21T03:33:23.920Z,100062.81
2023-05-21T03:35:52.643Z,100058.53
2023-05-21T03:38:20.800Z,100063.28
2023-05-21T03:40:49.345Z,100064.75
2023-05-21T03:43:18.396Z,100070.44
2023-05-21T03:45:46.841Z,100063.09
2023-05-21T03:48:19.138Z,100074.72
2023-05-21T03:50:47.894Z,100063.56
2023-05-21T03:53:15.996Z,100073.75
2023-05-21T03:55:44.401Z,100062.72
2023-05-21T03:58:12.926Z,100067.63
2023-05-21T04:00:41.238Z,100066.34
2023-05-21T04:03:11.931Z,100059.16
2023-05-21T04:05:40.183Z,100065.69
2023-05-21T04:08:08.496Z,100070.91
2023-05-21T04:10:37.868Z,100076.28
2023-05-21T04:13:06.491Z,100073.28
2023-05-21T04:15:36.130Z,100075.69
2023-05-21T04:18:07.352Z,100075.81
2023-05-21T04:20:35.776Z,100070.38
2023-05-21T04:23:03.969Z,100072.38
2023-05-21T04:25:32.861Z,100059.72
2023-05-21T04:28:01.199Z,100076.00
2023-05-21T04:30:29.464Z,100073.66
2023-05-21T04:32:58.212Z,100065.78
2023-05-21T04:35:27.266Z,100071.56
2023-05-21T04:37:56.108Z,100067.06
2023-05-21T04:40:27.183Z,100069.47
2023-05-21T04:42:56.311Z,100073.47
2023-05-21T04:45:27.273Z,100062.72
2023-05-21T04:48:00.424Z,100068.97
2023-05-21T04:50:32.387Z,100069.22
2023-05-21T04:53:00.632Z,100076.78
2023-05-21T04:55:29.261Z,100075.94
2023-05-21T04:57:58.055Z,100075.75
2023-05-21T05:00:26.901Z,100070.97
2023-05-21T05:02:56.248Z,100089.91
2023-05-21T05:05:25.070Z,100085.41
2023-05-21T05:07:53.398Z,100082.88
2023-05-21T05:10:21.915Z,100081.34
2023-05-21T05:12:50.522Z,100081.44
2023-05-21T05:15:18.746Z,100077.91
2023-05-21T05:17:50.642Z,100068.28
2023-05-21T05:20:19.329Z,100067.75
2023-05-21T05:22:47.798Z,100067.47
2023-05-21T05:25:16.094Z,100065.44
2023-05-21T05:27:44.508Z,100063.84
2023-05-21T05:30:14.157Z,100064.25
2023-05-21T05:32:42.458Z,100069.03
2023-05-21T05:35:10.961Z,100061.56
2023-05-21T05:37:39.587Z,100058.81
2023-05-21T05:40:08.158Z,100059.66
2023-05-21T05:42:36.756Z,100061.72
2023-05-21T05:45:06.156Z,100055.22
2023-05-21T05:47:35.326Z,100053.25
2023-05-21T05:50:03.769Z,100063.22
2023-05-21T05:52:32.221Z,100053.81
2023-05-21T05:55:00.427Z,100046.75
2023-05-21T05:57:28.906Z,100049.31
2023-05-21T05:59:58.449Z,100051.97
2023-05-21T06:02:27.399Z,100060.53
2023-05-21T06:04:56.399Z,100053.87
2023-05-21T06:07:24.666Z,100050.09
2023-05-21T06:09:52.816Z,100053.53
2023-05-21T06:12:21.557Z,100053.38
2023-05-21T06:14:50.984Z,100042.41
2023-05-21T06:17:19.333Z,100053.00
2023-05-21T06:19:48.104Z,100040.91
2023-05-21T06:22:16.441Z,100045.50
2023-05-21T06:24:44.801Z,100040.63
2023-05-21T06:27:13.789Z,100045.88
2023-05-21T06:29:42.152Z,100041.47
2023-05-21T06:32:10.312Z,100039.53
2023-05-21T06:34:38.876Z,100036.75
2023-05-21T06:37:06.964Z,100043.81
2023-05-21T06:39:35.171Z,100040.41
2023-05-21T06:42:04.848Z,100036.16
2023-05-21T06:44:39.286Z,100033.91
2023-05-21T06:47:09.256Z,100032.50
2023-05-21T06:49:37.339Z,100031.09
2023-05-21T06:52:05.765Z,100024.78
2023-05-21T06:54:35.055Z,100029.06
2023-05-21T06:57:03.533Z,100022.56
2023-05-21T06:59:32.626Z,100015.94
2023-05-21T07:02:04.312Z,100011.59
2023-05-21T07:04:35.317Z,100021.50
2023-05-21T07:07:04.898Z,100016.41
2023-05-21T07:09:33.284Z,100007.19
2023-05-21T07:12:02.205Z,100004.88
2023-05-21T07:14:31.017Z,99997.53
2023-05-21T07:16:59.211Z,100008.66
2023-05-21T07:19:27.430Z,100007.34
2023-05-21T07:21:57.202Z,100008.19
2023-05-21T07:24:27.578Z,100003.91
2023-05-21T07:26:56.150Z,100007.16
2023-05-21T07:29:24.985Z,100008.69
2023-05-21T07:31:53.405Z,100002.66
2023-05-21T07:34:21.870Z,99999.34
2023-05-21T07:36:50.172Z,100004.06
2023-05-21T07:39:18.561Z,99987.91
2023-05-21T07:41:47.046Z,99986.50
2023-05-21T07:44:16.816Z,99996.34
2023-05-21T07:46:46.681Z,100001.25
2023-05-21T07:49:16.969Z,100000.34
2023-05-21T07:51:46.280Z,99996.66
2023-05-21T07:54:14.871Z,100004.66
2023-05-21T07:56:43.608Z,100001.12
2023-05-21T07:59:17.534Z,100004.06
2023-05-21T08:01:46.367Z,100003.59
2023-05-21T08:04:14.978Z,99997.81
2023-05-21T08:06:43.401Z,100000.53
2023-05-21T08:09:12.241Z,99993.75
2023-05-21T08:11:42.160Z,100000.75
2023-05-21T08:14:10.662Z,99997.62
2023-05-21T08:16:39.083Z,99997.12
2023-05-21T08:19:07.630Z,99995.63
2023-05-21T08:21:35.867Z,99988.00
2023-05-21T08:24:04.328Z,99993.56
2023-05-21T08:26:33.133Z,99985.41
2023-05-21T08:29:01.773Z,99991.31
2023-05-21T08:31:30.186Z,99999.59
2023-05-21T08:33:58.647Z,99999.28
2023-05-21T08:36:27.579Z,99999.81
2023-05-21T08:38:56.627Z,100001.12
2023-05-21T08:41:26.465Z,99998.91
2023-05-21T08:44:02.323Z,100000.47
2023-05-21T08:46:36.843Z,100002.22
2023-05-21T08:49:06.645Z,100009.41
2023-05-21T08:51:36.048Z,100008.91
2023-05-21T08:54:05.576Z,100005.91
2023-05-21T08:56:34.945Z,100003.88
2023-05-21T08:59:03.476Z,100005.38
2023-05-21T09:01:33.446Z,100010.19
2023-05-21T09:04:19.073Z,99996.38
2023-05-21T09:06:48.607Z,100001.38
2023-05-21T09:09:33.667Z,100002.81
2023-05-21T09:12:02.412Z,99992.47
2023-05-21T09:14:31.767Z,99987.50
2023-05-21T09:17:00.567Z,99996.25
2023-05-21T09:19:32.180Z,99998.22
2023-05-21T09:22:04.726Z,99996.53
2023-05-21T09:24:35.981Z,99994.78
2023-05-21T09:27:07.884Z,99996.84
2023-05-21T09:29:36.963Z,99994.19
2023-05-21T09:32:10.034Z,99992.56
2023-05-21T09:34:39.452Z,99993.06
2023-05-21T09:37:16.413Z,99986.31
2023-05-21T09:39:49.503Z,99994.13
2023-05-21T09:42:21.610Z,99991.94
2023-05-21T09:44:50.071Z,99989.31
2023-05-21T09:47:21.021Z,99981.38
2023-05-21T09:49:49.712Z,99984.56
2023-05-21T09:52:25.919Z,99981.06
2023-05-21T09:54:54.331Z,99981.88
2023-05-21T09:57:26.661Z,99982.50
2023-05-21T09:59:55.151Z,99984.69
2023-05-21T10:02:24.751Z,99982.16
2023-05-21T10:04:54.848Z,99983.44
2023-05-21T10:07:26.547Z,99979.06
2023-05-21T10:09:56.882Z,99984.59
2023-05-21T10:12:25.510Z,99974.28
2023-05-21T10:15:04.897Z,99967.91
2023-05-21T10:17:34.545Z,99974.78
2023-05-21T10:20:04.977Z,99965.97
2023-05-21T10:22:34.596Z,99968.97
2023-05-21T10:25:03.814Z,99965.66
2023-05-21T10:27:33.474Z,99965.88
2023-05-21T10:30:02.151Z,99969.94
2023-05-21T10:32:31.543Z,99962.44
2023-05-21T10:35:01.966Z,99963.19
2023-05-21T10:37:30.825Z,99948.25
2023-05-21T10:39:59.088Z,99944.25
2023-05-21T10:42:47.931Z,99945.59
2023-05-21T10:45:43.159Z,99942.88
2023-05-21T10:48:26.345Z,99943.81
2023-05-21T10:51:20.376Z,99949.94
2023-05-21T10:54:25.708Z,99943.06
2023-05-21T10:57:00.201Z,99934.56
2023-05-21T10:59:42.574Z,99939.69
2023-05-21T11:02:13.111Z,99940.97
2023-05-21T11:04:45.066Z,99942.97
2023-05-21T11:07:13.605Z,99934.09
2023-05-21T11:09:41.778Z,99937.44
2023-05-21T11:12:10.528Z,99941.56
2023-05-21T11:14:56.322Z,99931.97
2023-05-21T11:17:40.942Z,99933.16
2023-05-21T11:20:13.758Z,99937.34
2023-05-21T11:22:42.282Z,99925.84
2023-05-21T11:25:12.597Z,99935.56
2023-05-21T11:27:42.272Z,99934.69
2023-05-21T11:30:16.165Z,99930.81
2023-05-21T11:33:12.253Z,99926.34
2023-05-21T11:35:59.513Z,99930.72
2023-05-21T11:38:34.127Z,99926.78
2023-05-21T11:41:05.610Z,99930.47
2023-05-21T11:43:33.828Z,99928.62
2023-05-21T11:46:02.527Z,99936.94
2023-05-21T11:48:32.737Z,99921.34
2023-05-21T11:51:01.638Z,99929.34
2023-05-21T11:53:30.418Z,99929.44
2023-05-21T11:56:02.142Z,99929.12
2023-05-21T11:58:31.723Z,99925.41
2023-05-21T12:01:00.068Z,99916.97
2023-05-21T12:03:30.766Z,99932.34
2023-05-21T12:06:06.475Z,99919.91
2023-05-21T12:08:36.198Z,99924.47
2023-05-21T12:11:04.889Z,99919.19
2023-05-21T12:13:32.995Z,99907.88
2023-05-21T12:16:05.207Z,99905.44
2023-05-21T12:18:36.732Z,99905.44
2023-05-21T12:21:05.586Z,99911.53
2023-05-21T12:23:33.811Z,99900.69
2023-05-21T12:26:03.272Z,99900.84
2023-05-21T12:28:32.323Z,99895.06
2023-05-21T12:31:00.618Z,99896.59
2023-05-21T12:33:35.626Z,99889.66
2023-05-21T12:36:04.528Z,99900.06
2023-05-21T12:38:32.908Z,99896.16
2023-05-21T12:41:06.000Z,99893.16
2023-05-21T12:43:35.052Z,99892.94
2023-05-21T12:46:03.451Z,99882.94
2023-05-21T12:48:32.035Z,99882.62
2023-05-21T12:51:00.410Z,99877.59
2023-05-21T12:53:38.094Z,99877.84
2023-05-21T12:56:13.724Z,99877.09
2023-05-21T12:58:49.722Z,99872.41
2023-05-21T13:01:21.486Z,99876.88
2023-05-21T13:03:50.008Z,99868.62
2023-05-21T13:06:18.530Z,99867.59
2023-05-21T13:08:46.670Z,99860.00
2023-05-21T13:11:14.668Z,99858.38
2023-05-21T13:13:43.378Z,99860.78
2023-05-21T13:16:11.515Z,99862.81
2023-05-21T13:18:39.717Z,99857.41
2023-05-21T13:21:08.389Z,99854.34
2023-05-21T13:23:36.503Z,99852.81
2023-05-21T13:26:04.850Z,99844.34
2023-05-21T13:28:33.412Z,99834.34
2023-05-21T13:31:01.636Z,99849.19
2023-05-21T13:33:31.787Z,99842.88
2023-05-21T13:36:00.607Z,99847.16
2023-05-21T13:38:28.729Z,99839.59
2023-05-21T13:40:57.072Z,99827.31
2023-05-21T13:43:25.626Z,99831.91
2023-05-21T13:45:53.955Z,99830.22
2023-05-21T13:48:22.286Z,99823.66
2023-05-21T13:50:50.816Z,99827.16
2023-05-21T13:53:18.915Z,99823.44
2023-05-21T13:55:47.229Z,99821.91
2023-05-21T13:58:15.895Z,99818.94
2023-05-21T14:00:44.149Z,99820.84
2023-05-21T14:03:12.645Z,99818.69
2023-05-21T14:05:41.207Z,99819.41
2023-05-21T14:08:09.358Z,99816.28
2023-05-21T14:10:38.166Z,99818.69
2023-05-21T14:13:18.262Z,99815.69
2023-05-21T14:15:48.502Z,99812.38
2023-05-21T14:18:16.917Z,99817.94
2023-05-21T14:20:45.159Z,99809.94
2023-05-21T14:23:13.693Z,99814.53
2023-05-21T14:25:42.790Z,99814.16
2023-05-21T14:28:10.970Z,99818.94
2023-05-21T14:30:39.241Z,99812.41
2023-05-21T14:33:07.562Z,99815.53
2023-05-21T14:35:35.856Z,99810.19
2023-05-21T14:38:04.717Z,99810.69
2023-05-21T14:40:32.798Z,99803.81
2023-05-21T14:43:01.075Z,99802.53
2023-05-21T14:45:29.840Z,99795.66
2023-05-21T14:47:58.048Z,99797.69
2023-05-21T14:50:26.214Z,99794.06
2023-05-21T14:52:54.824Z,99796.66
2023-05-21T14:55:23.254Z,99795.13
2023-05-21T14:57:51.352Z,99801.75
2023-05-21T15:00:20.054Z,99805.13
2023-05-21T15:02:48.469Z,99799.22
2023-05-21T15:05:17.987Z,99799.00
2023-05-21T15:07:47.094Z,99788.72
2023-05-21T15:10:17.261Z,99791.47
2023-05-21T15:12:47.140Z,99799.12
2023-05-21T15:15:17.309Z,99790.34
2023-05-21T15:17:45.597Z,99794.44
2023-05-21T15:20:14.186Z,99785.50
2023-05-21T15:22:42.869Z,99791.78
2023-05-21T15:25:11.013Z,99788.16
2023-05-21T15:27:39.567Z,99787.84
2023-05-21T15:30:08.285Z,99780.09
2023-05-21T15:32:36.969Z,99782.41
2023-05-21T15:35:05.985Z,99783.16
2023-05-21T15:37:34.488Z,99783.16
2023-05-21T15:40:02.713Z,99782.09
2023-05-21T15:42:31.940Z,99779.44
2023-05-21T15:45:00.543Z,99772.91
2023-05-21T15:47:28.767Z,99779.19
2023-05-21T15:49:58.925Z,99782.66
2023-05-21T15:52:27.250Z,99782.03
2023-05-21T15:54:55.630Z,99781.94
2023-05-21T15:57:24.459Z,99791.19
2023-05-21T15:59:53.148Z,99790.53
2023-05-21T16:02:21.618Z,99783.94
2023-05-21T16:04:52.201Z,99790.19
2023-05-21T16:07:21.246Z,99791.81
2023-05-21T16:09:49.783Z,99788.72
2023-05-21T16:12:18.430Z,99786.78
2023-05-21T16:14:50.150Z,99792.22
2023-05-21T16:17:21.794Z,99797.13
2023-05-21T16:19:49.934Z,99793.88
2023-05-21T16:22:20.997Z,99793.31
2023-05-21T16:24:49.135Z,99795.87
2023-05-21T16:27:17.435Z,99807.69
2023-05-21T16:29:45.980Z,99801.00
2023-05-21T16:32:14.420Z,99801.91
2023-05-21T16:34:42.707Z,99809.78
2023-05-21T16:37:11.506Z,99808.88
2023-05-21T16:39:39.831Z,99800.00
2023-05-21T16:42:08.093Z,99799.44
2023-05-21T16:44:38.004Z,99808.09
2023-05-21T16:47:06.500Z,99806.59
2023-05-21T16:49:34.659Z,99804.28
2023-05-21T16:52:03.729Z,99802.78
2023-05-21T16:54:32.291Z,99802.22
2023-05-21T16:57:00.354Z,99810.63
2023-05-21T16:59:29.295Z,99802.87
2023-05-21T17:01:57.604Z,99809.13
2023-05-21T17:04:25.940Z,99347.06
2023-05-21T17:06:54.617Z,99816.28
2023-05-21T17:09:22.998Z,99808.56
2023-05-21T17:11:51.186Z,99807.03
2023-05-21T17:14:32.568Z,99809.56
2023-05-21T17:17:02.458Z,99814.31
2023-05-21T17:19:31.321Z,99805.97
2023-05-21T17:21:59.613Z,99809.66
2023-05-21T17:24:27.828Z,99812.22
2023-05-21T17:26:56.789Z,99804.72
2023-05-21T17:29:25.031Z,99805.03
2023-05-21T17:31:53.210Z,99801.47
2023-05-21T17:34:25.314Z,99801.78
2023-05-21T17:36:54.287Z,99808.44
2023-05-21T17:39:23.086Z,99805.84
2023-05-21T17:41:51.850Z,99801.94
2023-05-21T17:44:20.203Z,99807.97
2023-05-21T17:46:52.102Z,99807.12
2023-05-21T17:49:20.851Z,99808.72
2023-05-21T17:51:49.313Z,99803.72
2023-05-21T17:54:17.485Z,99809.59
2023-05-21T17:56:46.537Z,99804.88
2023-05-21T17:59:16.065Z,99809.56
2023-05-21T18:01:44.300Z,99802.31
2023-05-21T18:04:13.502Z,99809.63
2023-05-21T18:06:43.000Z,99805.31
2023-05-21T18:09:14.494Z,99805.41
2023-05-21T18:11:44.477Z,99811.81
2023-05-21T18:14:12.719Z,99819.06
2023-05-21T18:16:41.208Z,99820.97
2023-05-21T18:19:09.733Z,99816.97
2023-05-21T18:21:38.169Z,99816.19
2023-05-21T18:24:06.848Z,99813.66
2023-05-21T18:26:35.477Z,99811.31
2023-05-21T18:29:03.634Z,99803.66
2023-05-21T18:31:32.098Z,99814.50
2023-05-21T18:34:00.583Z,99807.78
2023-05-21T18:36:28.778Z,99810.63
2023-05-21T18:38:58.277Z,99807.41
2023-05-21T18:41:27.079Z,99816.56
2023-05-21T18:43:55.223Z,99818.22
2023-05-21T18:46:24.681Z,99829.00
2023-05-21T18:48:53.294Z,99826.59
2023-05-21T18:51:21.595Z,99830.12
2023-05-21T18:53:49.771Z,99825.06
2023-05-21T18:56:18.342Z,99832.00
2023-05-21T18:58:47.580Z,99824.06
2023-05-21T19:01:16.433Z,99825.91
2023-05-21T19:03:44.989Z,99827.13
2023-05-21T19:06:13.132Z,99828.75
2023-05-21T19:08:42.108Z,99833.22
2023-05-21T19:11:12.144Z,99835.25
2023-05-21T19:13:40.435Z,99839.50
2023-05-21T19:16:11.070Z,99840.91
2023-05-21T19:18:43.324Z,99844.75
2023-05-21T19:21:12.196Z,99844.12
2023-05-21T19:23:52.083Z,99854.06
2023-05-21T19:26:22.994Z,99847.34
2023-05-21T19:28:53.892Z,99850.56
2023-05-21T19:31:23.365Z,99855.66
2023-05-21T19:33:52.533Z,99848.09
2023-05-21T19:36:21.373Z,99859.66
2023-05-21T19:38:50.826Z,99861.03
2023-05-21T19:41:20.142Z,99864.22
2023-05-21T19:43:48.243Z,99867.50
2023-05-21T19:46:19.823Z,99864.69
2023-05-21T19:48:49.690Z,99860.59
2023-05-21T19:51:17.874Z,99853.84
2023-05-21T19:53:46.128Z,99858.91
2023-05-21T19:56:15.002Z,99857.50
2023-05-21T19:58:47.091Z,99856.69
2023-05-21T20:01:16.958Z,99859.09
2023-05-21T20:03:46.203Z,99849.94
2023-05-21T20:06:16.955Z,99845.47
2023-05-21T20:08:46.371Z,99851.75
2023-05-21T20:11:14.551Z,99849.66
2023-05-21T20:13:42.677Z,99860.44
2023-05-21T20:16:12.852Z,99852.31
2023-05-21T20:18:41.711Z,99856.37
2023-05-21T20:21:10.493Z,99849.81
2023-05-21T20:23:39.151Z,99850.63
2023-05-21T20:26:07.253Z,99852.62
2023-05-21T20:28:35.765Z,99855.44
2023-05-21T20:31:04.828Z,99854.19
2023-05-21T20:33:34.717Z,99852.16
2023-05-21T20:36:03.459Z,99845.03
2023-05-21T20:38:37.358Z,99845.22
2023-05-21T20:41:05.606Z,99852.12
2023-05-21T20:43:37.314Z,99844.41
2023-05-21T20:46:05.959Z,99849.63
2023-05-21T20:48:35.401Z,99848.37
2023-05-21T20:54:27.213Z,99846.13
2023-05-21T20:57:09.177Z,99847.59
2023-05-21T20:59:37.434Z,99850.81
2023-05-21T21:02:11.207Z,99849.78
2023-05-21T21:04:40.127Z,99848.78
2023-05-21T21:07:10.057Z,99845.09
2023-05-21T21:09:38.321Z,99850.66
2023-05-21T21:12:24.054Z,99840.09
2023-05-21T21:14:53.623Z,99842.66
2023-05-21T21:17:22.560Z,99849.50
2023-05-21T21:19:50.715Z,99856.69
2023-05-21T21:22:19.250Z,99891.97
2023-05-21T21:24:48.129Z,99887.69
2023-05-21T21:27:16.360Z,99875.00
2023-05-21T21:29:45.698Z,99872.25
2023-05-21T21:32:14.256Z,99877.31
2023-05-21T21:34:42.381Z,99867.38
2023-05-21T21:37:11.601Z,99870.81
2023-05-21T21:39:40.242Z,99872.56
2023-05-21T21:42:08.558Z,99876.06
2023-05-21T21:44:36.675Z,99876.66
2023-05-21T21:47:05.672Z,99885.59
2023-05-21T21:49:34.419Z,99873.97
2023-05-21T21:52:02.591Z,99877.06
2023-05-21T21:54:31.318Z,99873.19
2023-05-21T21:56:59.466Z,99878.09
2023-05-21T21:59:27.888Z,99873.72
2023-05-21T22:01:56.474Z,99871.28
2023-05-21T22:04:24.923Z,99873.44
2023-05-21T22:06:53.696Z,99869.19
2023-05-21T22:09:24.893Z,99873.19
2023-05-21T22:11:53.788Z,99871.94
2023-05-21T22:14:21.959Z,99864.44
2023-05-21T22:16:53.198Z,99870.59
2023-05-21T22:19:22.672Z,99863.00
2023-05-21T22:21:50.915Z,99871.94
2023-05-21T22:24:31.552Z,99870.69
2023-05-21T22:27:01.380Z,99866.69
2023-05-21T22:29:29.759Z,99869.03
2023-05-21T22:31:57.786Z,99873.88
2023-05-21T22:34:26.245Z,99867.06
2023-05-21T22:36:54.445Z,99869.41
2023-05-21T22:39:22.527Z,99865.88
2023-05-21T22:41:51.160Z,99869.38
2023-05-21T22:44:19.408Z,99871.44
2023-05-21T22:46:49.442Z,99874.94
2023-05-21T22:49:18.095Z,99874.13
2023-05-21T22:51:46.803Z,99872.31
2023-05-21T22:54:14.998Z,99883.47
2023-05-21T22:56:44.249Z,99874.78
2023-05-21T22:59:14.011Z,99880.66
2023-05-21T23:01:42.390Z,99881.66
2023-05-21T23:04:10.808Z,99882.09
2023-05-21T23:06:39.249Z,99876.66
2023-05-21T23:09:07.385Z,99876.66
2023-05-21T23:11:35.896Z,99875.66
2023-05-21T23:14:04.090Z,99870.31
2023-05-21T23:16:35.474Z,99874.72
2023-05-21T23:19:03.943Z,99873.44
2023-05-21T23:21:32.305Z,99873.94
2023-05-21T23:24:00.381Z,99885.78
2023-05-21T23:26:28.980Z,99885.78
2023-05-21T23:28:57.514Z,99876.34
2023-05-21T23:31:26.024Z,99874.78
2023-05-21T23:33:54.677Z,99882.06
2023-05-21T23:36:23.198Z,99876.97
2023-05-21T23:38:51.400Z,99883.22
2023-05-21T23:41:19.906Z,99883.88
2023-05-21T23:43:47.947Z,99885.84
2023-05-21T23:46:16.329Z,99881.06
2023-05-21T23:48:44.889Z,99870.72
2023-05-21T23:51:13.382Z,99871.56
2023-05-21T23:53:41.574Z,99867.31
2023-05-21T23:56:09.957Z,99884.44
2023-05-21T23:58:38.361Z,99868.84
